createdAt,value
2023-03-15T00:01:21.375Z,98474.58
2023-03-15T00:03:48.711Z,98479.04
2023-03-15T00:06:16.556Z,98479.67
2023-03-15T00:08:47.851Z,98480.59
2023-03-15T00:11:19.169Z,98487.06
2023-03-15T00:13:46.743Z,98484.02
2023-03-15T00:16:17.876Z,98484.23
2023-03-15T00:18:47.436Z,98488.80
2023-03-15T00:21:15.234Z,98494.55
2023-03-15T00:23:42.305Z,98496.20
2023-03-15T00:26:09.266Z,98499.19
2023-03-15T00:28:36.305Z,98507.02
2023-03-15T00:31:14.820Z,98507.44
2023-03-15T00:33:42.461Z,98503.99
2023-03-15T00:36:10.809Z,98503.37
2023-03-15T00:38:39.523Z,98499.14
2023-03-15T00:41:17.981Z,98504.44
2023-03-15T00:43:45.144Z,98509.42
2023-03-15T00:46:12.744Z,98510.06
2023-03-15T00:48:40.202Z,98515.74
2023-03-15T00:51:13.950Z,98515.42
2023-03-15T00:53:43.451Z,98516.46
2023-03-15T00:56:13.535Z,98515.88
2023-03-15T00:58:40.680Z,98518.77
2023-03-15T01:01:10.731Z,98526.34
2023-03-15T01:03:38.584Z,98532.36
2023-03-15T01:06:10.834Z,98535.44
2023-03-15T01:08:38.058Z,98537.95
2023-03-15T01:11:08.150Z,98538.30
2023-03-15T01:13:36.206Z,98547.77
2023-03-15T01:16:04.130Z,98559.40
2023-03-15T01:18:31.926Z,98555.56
2023-03-15T01:20:59.791Z,98564.30
2023-03-15T01:23:26.924Z,98580.40
2023-03-15T01:25:53.822Z,98599.33
2023-03-15T01:28:21.055Z,98619.04
2023-03-15T01:30:52.110Z,98632.41
2023-03-15T01:33:20.588Z,98647.33
2023-03-15T01:35:48.531Z,98658.03
2023-03-15T01:38:15.646Z,98677.03
2023-03-15T01:40:45.945Z,98692.69
2023-03-15T01:43:22.618Z,98691.91
2023-03-15T01:46:00.437Z,98700.54
2023-03-15T01:48:48.533Z,98715.52
2023-03-15T01:51:39.262Z,98733.96
2023-03-15T01:54:27.559Z,98766.69
2023-03-15T01:57:10.080Z,98774.34
2023-03-15T01:59:44.214Z,98791.09
2023-03-15T02:02:15.683Z,98795.55
2023-03-15T02:04:49.443Z,98810.48
2023-03-15T02:07:21.634Z,98844.65
2023-03-15T02:10:01.571Z,98868.09
2023-03-15T02:12:32.978Z,98875.44
2023-03-15T02:15:04.912Z,98899.90
2023-03-15T02:17:43.759Z,98907.44
2023-03-15T02:20:19.416Z,98918.54
2023-03-15T02:23:02.188Z,98935.27
2023-03-15T02:25:51.117Z,98955.42
2023-03-15T02:28:20.471Z,98974.46
2023-03-15T02:30:48.338Z,98982.02
2023-03-15T02:33:29.383Z,98985.31
2023-03-15T02:36:06.601Z,98998.98
2023-03-15T02:38:33.623Z,99010.70
2023-03-15T02:41:01.006Z,99009.50
2023-03-15T02:43:32.338Z,99015.59
2023-03-15T02:46:00.662Z,99029.58
2023-03-15T02:48:28.937Z,99044.28
2023-03-15T02:50:56.756Z,99058.38
2023-03-15T02:53:23.665Z,99065.33
2023-03-15T02:55:52.100Z,99071.70
2023-03-15T02:58:19.020Z,99080.46
2023-03-15T03:00:45.989Z,99087.54
2023-03-15T03:03:12.823Z,99093.39
2023-03-15T03:05:39.790Z,99097.20
2023-03-15T03:08:06.825Z,99095.45
2023-03-15T03:10:34.355Z,99097.80
2023-03-15T03:13:01.588Z,99107.91
2023-03-15T03:15:33.902Z,99107.58
2023-03-15T03:18:00.900Z,99106.20
2023-03-15T03:20:27.953Z,99110.00
2023-03-15T03:22:56.063Z,99115.90
2023-03-15T03:25:27.256Z,99123.04
2023-03-15T03:27:57.452Z,99131.83
2023-03-15T03:30:26.392Z,99138.67
2023-03-15T03:32:53.413Z,99143.84
2023-03-15T03:35:20.635Z,99160.94
2023-03-15T03:37:47.467Z,99174.63
2023-03-15T03:40:20.997Z,99176.87
2023-03-15T03:42:48.096Z,99188.94
2023-03-15T03:45:17.564Z,99198.17
2023-03-15T03:47:45.122Z,99201.67
2023-03-15T03:50:11.971Z,99209.58
2023-03-15T03:52:39.331Z,99226.52
2023-03-15T03:55:09.212Z,99242.93
2023-03-15T03:57:36.060Z,99245.64
2023-03-15T04:00:05.006Z,99248.38
2023-03-15T04:02:44.362Z,99241.11
2023-03-15T04:05:14.089Z,99232.64
2023-03-15T04:07:41.707Z,99230.73
2023-03-15T04:10:14.779Z,99230.00
2023-03-15T04:12:44.640Z,99233.34
2023-03-15T04:15:12.856Z,99233.84
2023-03-15T04:17:40.209Z,99232.23
2023-03-15T04:20:13.046Z,99225.34
2023-03-15T04:22:49.734Z,99226.48
2023-03-15T04:25:35.445Z,99230.81
2023-03-15T04:28:30.577Z,99234.13
2023-03-15T04:31:15.035Z,99241.11
2023-03-15T04:33:57.009Z,99232.92
2023-03-15T04:36:46.405Z,99241.71
2023-03-15T04:39:27.091Z,99251.69
2023-03-15T04:42:13.054Z,99261.44
2023-03-15T04:44:54.076Z,99274.34
2023-03-15T04:47:51.674Z,99278.18
2023-03-15T04:50:44.949Z,99277.78
2023-03-15T04:53:30.826Z,99276.09
2023-03-15T04:56:13.329Z,99283.86
2023-03-15T04:59:06.617Z,99281.85
2023-03-15T05:02:00.801Z,99291.29
2023-03-15T05:04:52.090Z,99306.39
2023-03-15T05:07:36.953Z,99312.10
2023-03-15T05:10:33.361Z,99326.52
2023-03-15T05:13:38.501Z,99333.58
2023-03-15T05:16:21.671Z,99332.17
2023-03-15T05:18:48.558Z,99333.80
2023-03-15T05:21:34.053Z,99340.87
2023-03-15T05:24:24.457Z,99342.02
2023-03-15T05:27:14.230Z,99347.38
2023-03-15T05:30:06.785Z,99351.70
2023-03-15T05:32:45.003Z,99351.09
2023-03-15T05:35:26.819Z,99355.31
2023-03-15T05:38:15.422Z,99358.05
2023-03-15T05:41:18.362Z,99371.78
2023-03-15T05:44:08.001Z,99380.73
2023-03-15T05:46:53.757Z,99382.77
2023-03-15T05:49:37.414Z,99390.81
2023-03-15T05:52:42.847Z,99394.36
2023-03-15T05:55:28.382Z,99398.41
2023-03-15T05:58:17.831Z,99407.75
2023-03-15T06:01:21.549Z,99413.96
2023-03-15T06:03:58.876Z,99412.63
2023-03-15T06:06:26.639Z,99418.30
2023-03-15T06:08:53.621Z,99418.52
2023-03-15T06:11:20.736Z,99416.48
2023-03-15T06:13:48.087Z,99414.65
2023-03-15T06:16:24.368Z,99422.96
2023-03-15T06:18:52.675Z,99432.75
2023-03-15T06:21:21.770Z,99442.10
2023-03-15T06:23:48.684Z,99451.05
2023-03-15T06:26:15.841Z,99452.60
2023-03-15T06:28:43.013Z,99456.70
2023-03-15T06:31:11.866Z,99458.56
2023-03-15T06:33:46.513Z,99465.19
2023-03-15T06:36:14.587Z,99476.51
2023-03-15T06:38:42.374Z,99478.98
2023-03-15T06:41:09.622Z,99476.46
2023-03-15T06:43:36.872Z,99477.88
2023-03-15T06:46:03.962Z,99482.52
2023-03-15T06:48:31.741Z,99491.63
2023-03-15T06:50:58.694Z,99499.02
2023-03-15T06:53:25.508Z,99510.19
2023-03-15T06:55:52.455Z,99516.35
2023-03-15T06:58:19.416Z,99517.38
2023-03-15T07:00:46.344Z,99521.23
2023-03-15T07:03:13.217Z,99525.40
2023-03-15T07:05:40.342Z,99526.70
2023-03-15T07:08:07.519Z,99526.71
2023-03-15T07:10:34.577Z,99528.96
2023-03-15T07:13:01.444Z,99524.59
2023-03-15T07:15:29.150Z,99532.13
2023-03-15T07:17:56.144Z,99531.51
2023-03-15T07:20:23.119Z,99534.31
2023-03-15T07:22:50.584Z,99539.79
2023-03-15T07:25:23.964Z,99549.05
2023-03-15T07:27:51.358Z,99551.05
2023-03-15T07:30:19.585Z,99554.30
2023-03-15T07:32:47.150Z,99562.09
2023-03-15T07:35:14.835Z,99563.67
2023-03-15T07:37:44.588Z,99560.79
2023-03-15T07:40:13.239Z,99564.62
2023-03-15T07:42:40.988Z,99567.42
2023-03-15T07:45:09.499Z,99571.44
2023-03-15T07:47:36.751Z,99570.20
2023-03-15T07:50:05.226Z,99566.18
2023-03-15T07:52:32.452Z,99569.54
2023-03-15T07:54:59.336Z,99572.96
2023-03-15T07:57:28.732Z,99576.86
2023-03-15T07:59:56.340Z,99579.41
2023-03-15T08:02:23.256Z,99573.16
2023-03-15T08:04:51.505Z,99581.31
2023-03-15T08:07:18.373Z,99591.61
2023-03-15T08:09:45.316Z,99594.34
2023-03-15T08:12:12.196Z,99597.11
2023-03-15T08:14:39.124Z,99612.38
2023-03-15T08:17:06.216Z,99623.86
2023-03-15T08:19:33.162Z,99637.02
2023-03-15T08:22:00.000Z,99646.95
2023-03-15T08:24:27.256Z,99645.09
2023-03-15T08:26:54.109Z,99657.58
2023-03-15T08:29:21.437Z,99665.54
2023-03-15T08:31:48.355Z,99671.77
2023-03-15T08:34:16.376Z,99682.80
2023-03-15T08:36:43.340Z,99688.10
2023-03-15T08:39:10.197Z,99689.36
2023-03-15T08:41:37.316Z,99687.21
2023-03-15T08:44:04.379Z,99691.98
2023-03-15T08:46:31.421Z,99693.78
2023-03-15T08:48:58.337Z,99697.27
2023-03-15T08:51:26.535Z,99703.97
2023-03-15T08:53:53.863Z,99708.70
2023-03-15T08:56:21.215Z,99719.98
2023-03-15T08:58:48.727Z,99723.89
2023-03-15T09:01:16.197Z,99728.05
2023-03-15T09:03:45.064Z,99737.65
2023-03-15T09:06:12.031Z,99736.94
2023-03-15T09:08:38.902Z,99733.26
2023-03-15T09:11:06.074Z,99733.25
2023-03-15T09:13:33.205Z,99736.19
2023-03-15T09:16:00.159Z,99735.38
2023-03-15T09:18:27.118Z,99735.45
2023-03-15T09:20:54.080Z,99733.36
2023-03-15T09:23:20.904Z,99729.07
2023-03-15T09:25:47.811Z,99728.71
2023-03-15T09:28:14.701Z,99731.52
2023-03-15T09:30:42.554Z,99735.99
2023-03-15T09:33:09.928Z,99733.44
2023-03-15T09:35:37.120Z,99734.96
2023-03-15T09:38:04.167Z,99731.08
2023-03-15T09:40:40.099Z,99730.07
2023-03-15T09:43:06.882Z,99732.71
2023-03-15T09:46:03.216Z,99731.05
2023-03-15T09:48:54.475Z,99735.37
2023-03-15T09:51:21.338Z,99743.83
2023-03-15T09:53:57.286Z,99742.00
2023-03-15T09:56:28.529Z,99735.36
2023-03-15T09:58:59.960Z,99747.80
2023-03-15T10:01:36.017Z,99744.23
2023-03-15T10:04:32.153Z,99741.40
2023-03-15T10:07:04.333Z,99742.40
2023-03-15T10:09:34.065Z,99744.64
2023-03-15T10:12:22.171Z,99735.52
2023-03-15T10:15:17.263Z,99720.46
2023-03-15T10:17:59.660Z,99712.63
2023-03-15T10:20:34.390Z,99721.04
2023-03-15T10:23:22.942Z,99713.23
2023-03-15T10:25:51.937Z,99712.30
2023-03-15T10:28:30.625Z,99716.51
2023-03-15T10:31:25.799Z,99720.50
2023-03-15T10:33:59.763Z,99730.02
2023-03-15T10:36:26.706Z,99735.95
2023-03-15T10:38:53.540Z,99731.27
2023-03-15T10:41:38.258Z,99734.88
2023-03-15T10:44:17.307Z,99735.13
2023-03-15T10:47:02.649Z,99739.69
2023-03-15T10:49:49.208Z,99736.77
2023-03-15T10:52:46.349Z,99744.77
2023-03-15T10:55:22.006Z,99744.29
2023-03-15T10:57:55.884Z,99746.25
2023-03-15T11:00:36.986Z,99745.77
2023-03-15T11:03:17.918Z,99760.23
2023-03-15T11:05:48.493Z,99761.73
2023-03-15T11:08:25.039Z,99762.27
2023-03-15T11:10:57.724Z,99763.33
2023-03-15T11:13:30.384Z,99762.55
2023-03-15T11:16:25.416Z,99763.05
2023-03-15T11:19:01.762Z,99765.73
2023-03-15T11:21:33.759Z,99768.86
2023-03-15T11:24:06.212Z,99766.38
2023-03-15T11:26:39.126Z,99760.59
2023-03-15T11:29:29.640Z,99755.33
2023-03-15T11:31:58.627Z,99757.43
2023-03-15T11:34:56.114Z,99754.14
2023-03-15T11:37:28.539Z,99749.10
2023-03-15T11:40:11.251Z,99739.98
2023-03-15T11:42:49.791Z,99752.02
2023-03-15T11:45:30.218Z,99757.49
2023-03-15T11:48:25.457Z,99758.87
2023-03-15T11:50:57.933Z,99761.54
2023-03-15T11:53:32.120Z,99756.80
2023-03-15T11:56:23.568Z,99761.95
2023-03-15T11:59:06.451Z,99767.66
2023-03-15T12:01:35.110Z,99775.88
2023-03-15T12:04:32.726Z,99777.69
2023-03-15T12:07:06.489Z,99774.55
2023-03-15T12:09:33.491Z,99784.92
2023-03-15T12:12:03.711Z,99795.80
2023-03-15T12:14:36.933Z,99795.38
2023-03-15T12:17:27.201Z,99786.93
2023-03-15T12:20:12.816Z,99793.49
2023-03-15T12:23:06.361Z,99800.75
2023-03-15T12:25:48.895Z,99796.34
2023-03-15T12:28:33.902Z,99803.96
2023-03-15T12:31:03.410Z,99801.75
2023-03-15T12:33:32.864Z,99798.96
2023-03-15T12:36:03.435Z,99797.46
2023-03-15T12:38:41.974Z,99812.97
2023-03-15T12:41:30.187Z,99818.96
2023-03-15T12:44:19.864Z,99825.66
2023-03-15T12:46:46.702Z,99830.70
2023-03-15T12:49:16.657Z,99837.59
2023-03-15T12:51:44.697Z,99844.98
2023-03-15T12:54:16.093Z,99842.95
2023-03-15T12:56:54.675Z,99848.88
2023-03-15T12:59:48.526Z,99852.27
2023-03-15T13:02:42.709Z,99850.98
2023-03-15T13:05:10.520Z,99848.54
2023-03-15T13:07:51.552Z,99844.95
2023-03-15T13:10:26.140Z,99852.04
2023-03-15T13:13:05.309Z,99855.88
2023-03-15T13:15:43.112Z,99850.73
2023-03-15T13:18:18.809Z,99851.23
2023-03-15T13:20:55.203Z,99852.36
2023-03-15T13:23:27.660Z,99854.96
2023-03-15T13:26:33.524Z,99858.80
2023-03-15T13:29:15.326Z,99861.04
2023-03-15T13:31:44.463Z,99863.55
2023-03-15T13:34:19.660Z,99856.80
2023-03-15T13:36:58.489Z,99861.17
2023-03-15T13:39:34.451Z,99866.06
2023-03-15T13:42:24.326Z,99870.50
2023-03-15T13:45:06.712Z,99872.23
2023-03-15T13:47:36.732Z,99881.58
2023-03-15T13:50:04.191Z,99886.90
2023-03-15T13:52:31.459Z,99885.60
2023-03-15T13:54:59.858Z,99887.02
2023-03-15T13:57:27.090Z,99891.48
2023-03-15T14:00:00.920Z,99891.33
2023-03-15T14:02:43.084Z,99891.70
2023-03-15T14:05:27.207Z,99898.27
2023-03-15T14:08:04.661Z,99898.73
2023-03-15T14:10:39.031Z,99901.38
2023-03-15T14:13:24.314Z,99908.03
2023-03-15T14:15:57.541Z,99903.31
2023-03-15T14:18:30.463Z,99903.60
2023-03-15T14:21:00.951Z,99901.88
2023-03-15T14:23:30.267Z,99904.55
2023-03-15T14:26:23.064Z,99905.64
2023-03-15T14:28:55.664Z,99906.64
2023-03-15T14:31:26.032Z,99912.52
2023-03-15T14:33:57.133Z,99918.45
2023-03-15T14:36:35.607Z,99920.27
2023-03-15T14:39:02.580Z,99920.12
2023-03-15T14:41:33.960Z,99925.90
2023-03-15T14:44:03.144Z,99928.52
2023-03-15T14:46:33.499Z,99926.07
2023-03-15T14:49:01.401Z,99931.48
2023-03-15T14:51:29.806Z,99933.55
2023-03-15T14:53:59.252Z,99932.68
2023-03-15T14:56:26.918Z,99932.61
2023-03-15T14:58:56.330Z,99936.69
2023-03-15T15:01:27.125Z,99934.95
2023-03-15T15:04:02.070Z,99939.04
2023-03-15T15:06:32.145Z,99939.68
2023-03-15T15:09:01.695Z,99937.55
2023-03-15T15:11:28.856Z,99939.84
2023-03-15T15:13:56.876Z,99941.02
2023-03-15T15:16:24.056Z,99946.56
2023-03-15T15:18:51.006Z,99947.84
2023-03-15T15:21:20.759Z,99955.92
2023-03-15T15:23:57.882Z,99949.41
2023-03-15T15:26:28.663Z,99948.00
2023-03-15T15:28:56.765Z,99953.50
2023-03-15T15:31:26.303Z,99960.03
2023-03-15T15:33:56.932Z,99963.66
2023-03-15T15:36:27.480Z,99961.75
2023-03-15T15:38:54.671Z,99966.77
2023-03-15T15:41:26.933Z,99969.58
2023-03-15T15:43:54.145Z,99974.84
2023-03-15T15:46:21.197Z,99982.88
2023-03-15T15:48:48.274Z,99984.91
2023-03-15T15:51:29.825Z,99987.14
2023-03-15T15:53:59.313Z,99986.77
2023-03-15T15:56:40.326Z,99994.72
2023-03-15T15:59:13.592Z,99998.98
2023-03-15T16:01:56.666Z,99999.70
2023-03-15T16:04:26.457Z,99999.12
2023-03-15T16:06:59.535Z,100000.56
2023-03-15T16:09:30.154Z,100003.91
2023-03-15T16:11:57.402Z,100010.39
2023-03-15T16:14:24.342Z,100012.48
2023-03-15T16:16:51.330Z,100012.65
2023-03-15T16:19:18.221Z,100007.17
2023-03-15T16:21:48.367Z,100013.56
2023-03-15T16:24:28.298Z,100013.99
2023-03-15T16:27:03.061Z,100015.80
2023-03-15T16:29:39.346Z,100020.09
2023-03-15T16:32:19.019Z,100016.16
2023-03-15T16:34:49.848Z,100017.39
2023-03-15T16:37:21.825Z,100027.29
2023-03-15T16:39:52.918Z,100029.38
2023-03-15T16:42:20.584Z,100030.03
2023-03-15T16:44:47.446Z,100032.27
2023-03-15T16:47:14.376Z,100034.76
2023-03-15T16:49:41.340Z,100043.57
2023-03-15T16:52:10.342Z,100047.02
2023-03-15T16:54:41.385Z,100055.77
2023-03-15T16:57:22.103Z,100062.52
2023-03-15T16:59:50.143Z,100063.95
2023-03-15T17:02:25.449Z,100067.24
2023-03-15T17:04:55.429Z,100067.45
2023-03-15T17:07:28.529Z,100070.20
2023-03-15T17:09:55.847Z,100077.01
2023-03-15T17:12:26.168Z,100078.27
2023-03-15T17:14:56.632Z,100082.48
2023-03-15T17:17:25.758Z,100084.39
2023-03-15T17:19:52.961Z,100086.86
2023-03-15T17:22:20.502Z,100088.23
2023-03-15T17:24:48.666Z,100088.70
2023-03-15T17:27:39.697Z,100086.07
2023-03-15T17:30:31.974Z,100090.89
2023-03-15T17:33:00.178Z,100095.39
2023-03-15T17:35:37.377Z,100103.13
2023-03-15T17:38:06.706Z,100104.85
2023-03-15T17:40:36.213Z,100100.09
2023-03-15T17:43:04.049Z,100102.61
2023-03-15T17:45:33.413Z,100109.46
2023-03-15T17:48:01.487Z,100108.05
2023-03-15T17:50:31.244Z,100109.84
2023-03-15T17:53:01.954Z,100110.86
2023-03-15T17:55:31.611Z,100109.55
2023-03-15T17:57:58.520Z,100109.58
2023-03-15T18:00:25.673Z,100114.74
2023-03-15T18:02:55.988Z,100115.02
2023-03-15T18:05:28.757Z,100118.43
2023-03-15T18:07:59.877Z,100120.22
2023-03-15T18:10:34.442Z,100125.88
2023-03-15T18:13:01.641Z,100132.89
2023-03-15T18:15:28.789Z,100132.36
2023-03-15T18:17:55.835Z,100134.35
2023-03-15T18:20:24.270Z,100135.86
2023-03-15T18:22:51.517Z,100138.40
2023-03-15T18:25:24.511Z,100140.59
2023-03-15T18:27:52.101Z,100146.50
2023-03-15T18:30:21.821Z,100147.38
2023-03-15T18:32:50.756Z,100145.27
2023-03-15T18:35:24.210Z,100147.20
2023-03-15T18:37:51.518Z,100146.93
2023-03-15T18:40:20.115Z,100149.23
2023-03-15T18:42:47.111Z,100149.44
2023-03-15T18:45:23.484Z,100153.89
2023-03-15T18:47:50.896Z,100155.98
2023-03-15T18:50:19.346Z,100161.77
2023-03-15T18:52:46.659Z,100162.45
2023-03-15T18:55:16.534Z,100164.15
2023-03-15T18:57:46.317Z,100160.61
2023-03-15T19:00:15.041Z,100164.76
2023-03-15T19:02:44.396Z,100163.84
2023-03-15T19:05:13.681Z,100165.88
2023-03-15T19:07:41.446Z,100166.88
2023-03-15T19:10:13.679Z,100166.22
2023-03-15T19:12:45.650Z,100169.73
2023-03-15T19:15:17.437Z,100168.73
2023-03-15T19:17:46.776Z,100169.94
2023-03-15T19:20:15.775Z,100173.52
2023-03-15T19:22:43.195Z,100179.66
2023-03-15T19:25:13.351Z,100185.13
2023-03-15T19:27:41.998Z,100186.16
2023-03-15T19:30:14.486Z,100185.69
2023-03-15T19:32:43.185Z,100187.33
2023-03-15T19:35:10.798Z,100191.38
2023-03-15T19:37:38.518Z,100193.34
2023-03-15T19:40:09.762Z,100191.29
2023-03-15T19:42:36.724Z,100194.14
2023-03-15T19:45:05.349Z,100196.16
2023-03-15T19:47:32.310Z,100203.41
2023-03-15T19:49:59.301Z,100202.84
2023-03-15T19:52:28.241Z,100207.08
2023-03-15T19:54:57.912Z,100205.48
2023-03-15T19:57:24.898Z,100205.39
2023-03-15T19:59:51.855Z,100208.31
2023-03-15T20:02:19.046Z,100204.02
2023-03-15T20:04:46.111Z,100206.84
2023-03-15T20:07:12.983Z,100207.78
2023-03-15T20:09:41.054Z,100209.25
2023-03-15T20:12:12.551Z,100217.21
2023-03-15T20:14:39.710Z,100222.30
2023-03-15T20:17:07.215Z,100220.65
2023-03-15T20:19:34.282Z,100218.45
2023-03-15T20:22:01.162Z,100221.53
2023-03-15T20:24:27.978Z,100222.67
2023-03-15T20:26:54.952Z,100220.09
2023-03-15T20:29:24.770Z,100223.42
2023-03-15T20:31:53.570Z,100225.08
2023-03-15T20:34:21.632Z,100228.27
2023-03-15T20:36:48.596Z,100231.35
2023-03-15T20:39:18.651Z,100230.13
2023-03-15T20:41:45.688Z,100228.52
2023-03-15T20:44:12.938Z,100232.52
2023-03-15T20:46:42.620Z,100236.18
2023-03-15T20:49:10.121Z,100239.47
2023-03-15T20:51:37.154Z,100238.98
2023-03-15T20:54:04.374Z,100243.36
2023-03-15T20:56:31.484Z,100247.41
2023-03-15T20:58:58.571Z,100246.43
2023-03-15T21:01:25.706Z,100247.69
2023-03-15T21:03:56.217Z,100249.52
2023-03-15T21:06:24.102Z,100251.73
2023-03-15T21:08:51.305Z,100251.27
2023-03-15T21:11:18.345Z,100254.23
2023-03-15T21:13:45.517Z,100254.45
2023-03-15T21:16:13.752Z,100255.95
2023-03-15T21:18:45.004Z,100256.39
2023-03-15T21:21:12.815Z,100259.17
2023-03-15T21:23:39.847Z,100258.54
2023-03-15T21:26:09.756Z,100258.33
2023-03-15T21:28:39.276Z,100262.08
2023-03-15T21:31:07.636Z,100261.96
2023-03-15T21:33:34.624Z,100265.29
2023-03-15T21:36:02.474Z,100269.60
2023-03-15T21:38:34.250Z,100268.24
2023-03-15T21:41:06.093Z,100270.11
2023-03-15T21:43:33.883Z,100269.58
2023-03-15T21:46:06.209Z,100271.88
2023-03-15T21:48:34.295Z,100272.78
2023-03-15T21:51:02.841Z,100274.45
2023-03-15T21:53:33.560Z,100276.21
2023-03-15T21:56:02.118Z,100277.90
2023-03-15T21:58:29.592Z,100277.14
2023-03-15T22:01:04.768Z,100283.70
2023-03-15T22:03:34.361Z,100284.54
2023-03-15T22:06:02.202Z,100289.59
2023-03-15T22:08:29.665Z,100290.02
2023-03-15T22:10:59.033Z,100292.75
2023-03-15T22:13:26.677Z,100295.86
2023-03-15T22:15:53.683Z,100303.77
2023-03-15T22:18:20.882Z,100304.89
2023-03-15T22:20:48.998Z,100304.89
2023-03-15T22:23:16.065Z,100305.70
2023-03-15T22:25:43.252Z,100305.83
2023-03-15T22:28:10.577Z,100308.97
2023-03-15T22:30:37.534Z,100311.23
2023-03-15T22:33:04.900Z,100315.75
2023-03-15T22:35:34.148Z,100315.54
2023-03-15T22:38:10.341Z,100312.00
2023-03-15T22:40:39.710Z,100317.66
2023-03-15T22:43:07.947Z,100320.67
2023-03-15T22:45:35.384Z,100318.75
2023-03-15T22:48:02.346Z,100323.11
2023-03-15T22:50:29.235Z,100322.09
2023-03-15T22:52:56.110Z,100326.39
2023-03-15T22:55:23.115Z,100323.32
2023-03-15T22:57:50.186Z,100328.33
2023-03-15T23:00:21.664Z,100331.28
2023-03-15T23:02:48.815Z,100335.96
2023-03-15T23:05:16.035Z,100334.46
2023-03-15T23:07:43.044Z,100337.20
2023-03-15T23:10:11.602Z,100347.31
2023-03-15T23:12:38.556Z,100351.98
2023-03-15T23:15:06.591Z,100356.21
2023-03-15T23:17:33.471Z,100360.52
2023-03-15T23:20:00.420Z,100366.33
2023-03-15T23:22:27.429Z,100369.34
2023-03-15T23:24:58.276Z,100372.14
2023-03-15T23:27:26.294Z,100376.21
2023-03-15T23:29:54.918Z,100380.50
2023-03-15T23:32:23.697Z,100381.29
2023-03-15T23:34:51.308Z,100383.48
2023-03-15T23:37:18.318Z,100383.64
2023-03-15T23:39:45.510Z,100386.08
2023-03-15T23:42:14.008Z,100392.91
2023-03-15T23:44:40.911Z,100395.31
2023-03-15T23:47:08.234Z,100394.98
2023-03-15T23:49:35.108Z,100396.10
2023-03-15T23:52:06.159Z,100394.46
2023-03-15T23:54:41.377Z,100393.23
2023-03-15T23:57:10.536Z,100395.91
2023-03-15T23:59:38.864Z,100395.70
